sensor_id;sensor_type;location;lat;lon;timestamp;P1;durP1;ratioP1;P2;durP2;ratioP2
23328;SDS011;11836;51.050;3.716;2023-03-14T00:00:31;2.25;;;1.15;;
23328;SDS011;11836;51.050;3.716;2023-03-14T00:02:57;2.30;;;1.35;;
23328;SDS011;11836;51.050;3.716;2023-03-14T00:05:22;3.78;;;1.10;;
23328;SDS011;11836;51.050;3.716;2023-03-14T00:07:48;2.00;;;0.93;;
23328;SDS011;11836;51.050;3.716;2023-03-14T00:10:14;1.90;;;1.02;;
23328;SDS011;11836;51.050;3.716;2023-03-14T00:12:40;2.40;;;1.27;;
23328;SDS011;11836;51.050;3.716;2023-03-14T00:15:07;2.15;;;0.90;;
23328;SDS011;11836;51.050;3.716;2023-03-14T00:17:34;1.88;;;0.88;;
23328;SDS011;11836;51.050;3.716;2023-03-14T00:20:00;2.25;;;0.82;;
23328;SDS011;11836;51.050;3.716;2023-03-14T00:22:33;1.52;;;1.00;;
23328;SDS011;11836;51.050;3.716;2023-03-14T00:25:01;3.17;;;1.10;;
23328;SDS011;11836;51.050;3.716;2023-03-14T07:12:20;2.45;;;1.25;;
23328;SDS011;11836;51.050;3.716;2023-03-14T07:14:45;2.58;;;1.15;;
23328;SDS011;11836;51.050;3.716;2023-03-14T07:17:11;2.97;;;0.93;;
23328;SDS011;11836;51.050;3.716;2023-03-14T07:19:37;1.13;;;0.90;;
23328;SDS011;11836;51.050;3.716;2023-03-14T07:22:03;1.58;;;0.80;;
23328;SDS011;11836;51.050;3.716;2023-03-14T07:24:29;2.65;;;0.80;;
23328;SDS011;11836;51.050;3.716;2023-03-14T07:26:55;1.20;;;0.90;;
23328;SDS011;11836;51.050;3.716;2023-03-14T07:29:20;2.88;;;0.82;;
23328;SDS011;11836;51.050;3.716;2023-03-14T07:31:46;1.75;;;0.70;;
23328;SDS011;11836;51.050;3.716;2023-03-14T07:34:12;2.28;;;0.80;;
23328;SDS011;11836;51.050;3.716;2023-03-14T07:36:37;1.52;;;0.80;;
23328;SDS011;11836;51.050;3.716;2023-03-14T07:39:03;1.85;;;0.80;;
23328;SDS011;11836;51.050;3.716;2023-03-14T07:41:58;2.17;;;0.75;;
23328;SDS011;11836;51.050;3.716;2023-03-14T07:44:24;2.83;;;0.90;;
23328;SDS011;11836;51.050;3.716;2023-03-14T07:46:50;1.25;;;0.90;;
23328;SDS011;11836;51.050;3.716;2023-03-14T07:49:15;1.58;;;0.95;;
23328;SDS011;11836;51.050;3.716;2023-03-14T07:51:41;1.80;;;0.80;;
23328;SDS011;11836;51.050;3.716;2023-03-14T07:54:08;1.30;;;0.77;;
23328;SDS011;11836;51.050;3.716;2023-03-14T07:56:34;0.98;;;0.80;;
23328;SDS011;11836;51.050;3.716;2023-03-14T07:59:00;5.35;;;1.15;;
23328;SDS011;11836;51.050;3.716;2023-03-14T08:01:26;1.88;;;0.90;;
23328;SDS011;11836;51.050;3.716;2023-03-14T08:03:52;1.17;;;0.75;;
23328;SDS011;11836;51.050;3.716;2023-03-14T08:06:17;1.92;;;0.82;;
23328;SDS011;11836;51.050;3.716;2023-03-14T08:08:43;2.95;;;1.13;;
23328;SDS011;11836;51.050;3.716;2023-03-14T08:11:09;2.33;;;1.00;;
23328;SDS011;11836;51.050;3.716;2023-03-14T08:13:35;1.33;;;0.85;;
23328;SDS011;11836;51.050;3.716;2023-03-14T08:16:01;3.58;;;0.88;;
23328;SDS011;11836;51.050;3.716;2023-03-14T08:18:27;2.53;;;1.13;;
23328;SDS011;11836;51.050;3.716;2023-03-14T08:20:53;3.60;;;0.98;;
23328;SDS011;11836;51.050;3.716;2023-03-14T08:23:18;1.48;;;0.82;;
23328;SDS011;11836;51.050;3.716;2023-03-14T08:25:44;1.73;;;0.80;;
23328;SDS011;11836;51.050;3.716;2023-03-14T08:28:10;1.33;;;0.63;;
23328;SDS011;11836;51.050;3.716;2023-03-14T08:30:35;1.58;;;0.57;;
23328;SDS011;11836;51.050;3.716;2023-03-14T08:33:01;5.40;;;0.73;;
23328;SDS011;11836;51.050;3.716;2023-03-14T08:35:27;1.27;;;0.57;;
23328;SDS011;11836;51.050;3.716;2023-03-14T08:37:52;0.95;;;0.57;;
23328;SDS011;11836;51.050;3.716;2023-03-14T08:40:18;1.05;;;0.73;;
23328;SDS011;11836;51.050;3.716;2023-03-14T08:42:44;2.58;;;0.75;;
23328;SDS011;11836;51.050;3.716;2023-03-14T08:45:11;2.58;;;0.70;;
23328;SDS011;11836;51.050;3.716;2023-03-14T08:47:42;1.67;;;0.85;;
23328;SDS011;11836;51.050;3.716;2023-03-14T08:50:08;1.88;;;0.52;;
23328;SDS011;11836;51.050;3.716;2023-03-14T08:52:35;2.22;;;0.60;;
23328;SDS011;11836;51.050;3.716;2023-03-14T08:55:02;3.50;;;0.73;;
23328;SDS011;11836;51.050;3.716;2023-03-14T08:57:31;2.05;;;0.80;;
23328;SDS011;11836;51.050;3.716;2023-03-14T08:59:57;6.88;;;0.95;;
23328;SDS011;11836;51.050;3.716;2023-03-14T09:02:23;2.22;;;0.88;;
23328;SDS011;11836;51.050;3.716;2023-03-14T09:04:50;1.00;;;0.63;;
23328;SDS011;11836;51.050;3.716;2023-03-14T09:07:16;3.30;;;1.00;;
23328;SDS011;11836;51.050;3.716;2023-03-14T09:09:45;2.00;;;0.80;;
23328;SDS011;11836;51.050;3.716;2023-03-14T09:12:11;2.33;;;0.55;;
23328;SDS011;11836;51.050;3.716;2023-03-14T09:14:37;4.18;;;0.77;;
23328;SDS011;11836;51.050;3.716;2023-03-14T09:17:03;3.72;;;0.82;;
23328;SDS011;11836;51.050;3.716;2023-03-14T09:19:31;3.83;;;0.95;;
23328;SDS011;11836;51.050;3.716;2023-03-14T09:21:57;3.63;;;1.00;;
23328;SDS011;11836;51.050;3.716;2023-03-14T09:24:23;3.10;;;0.73;;
23328;SDS011;11836;51.050;3.716;2023-03-14T09:26:48;2.53;;;0.98;;
23328;SDS011;11836;51.050;3.716;2023-03-14T09:29:14;1.25;;;0.55;;
23328;SDS011;11836;51.050;3.716;2023-03-14T09:31:40;2.38;;;0.70;;
23328;SDS011;11836;51.050;3.716;2023-03-14T09:34:05;1.17;;;0.60;;
23328;SDS011;11836;51.050;3.716;2023-03-14T09:36:31;4.15;;;1.02;;
23328;SDS011;11836;51.050;3.716;2023-03-14T09:38:56;3.78;;;0.68;;
23328;SDS011;11836;51.050;3.716;2023-03-14T09:41:29;4.57;;;1.10;;
23328;SDS011;11836;51.050;3.716;2023-03-14T09:44:03;3.45;;;0.80;;
23328;SDS011;11836;51.050;3.716;2023-03-14T09:46:50;1.52;;;0.85;;
23328;SDS011;11836;51.050;3.716;2023-03-14T09:49:20;2.80;;;0.63;;
23328;SDS011;11836;51.050;3.716;2023-03-14T09:51:50;2.35;;;0.88;;
23328;SDS011;11836;51.050;3.716;2023-03-14T09:54:40;3.53;;;0.90;;
23328;SDS011;11836;51.050;3.716;2023-03-14T09:57:16;2.78;;;0.98;;
23328;SDS011;11836;51.050;3.716;2023-03-14T09:59:47;3.10;;;0.75;;
23328;SDS011;11836;51.050;3.716;2023-03-14T10:02:19;2.20;;;0.90;;
23328;SDS011;11836;51.050;3.716;2023-03-14T10:04:47;2.20;;;0.88;;
23328;SDS011;11836;51.050;3.716;2023-03-14T10:07:33;1.08;;;0.60;;
23328;SDS011;11836;51.050;3.716;2023-03-14T10:09:59;2.25;;;0.70;;
23328;SDS011;11836;51.050;3.716;2023-03-14T10:12:31;2.95;;;1.08;;
23328;SDS011;11836;51.050;3.716;2023-03-14T10:15:00;1.52;;;0.80;;
23328;SDS011;11836;51.050;3.716;2023-03-14T10:17:52;3.45;;;0.90;;
23328;SDS011;11836;51.050;3.716;2023-03-14T10:23:03;1.73;;;0.70;;
23328;SDS011;11836;51.050;3.716;2023-03-14T10:25:32;1.65;;;0.60;;
23328;SDS011;11836;51.050;3.716;2023-03-14T10:28:00;1.83;;;0.60;;
23328;SDS011;11836;51.050;3.716;2023-03-14T10:30:48;2.05;;;0.75;;
23328;SDS011;11836;51.050;3.716;2023-03-14T10:33:22;1.67;;;0.65;;
23328;SDS011;11836;51.050;3.716;2023-03-14T10:35:53;1.35;;;0.65;;
23328;SDS011;11836;51.050;3.716;2023-03-14T10:38:25;1.17;;;0.80;;
23328;SDS011;11836;51.050;3.716;2023-03-14T10:40:53;0.85;;;0.55;;
23328;SDS011;11836;51.050;3.716;2023-03-14T10:45:47;1.33;;;0.65;;
23328;SDS011;11836;51.050;3.716;2023-03-14T10:56:28;0.65;;;0.38;;
23328;SDS011;11836;51.050;3.716;2023-03-14T10:58:59;2.72;;;0.80;;
23328;SDS011;11836;51.050;3.716;2023-03-14T11:04:37;1.05;;;0.57;;
23328;SDS011;11836;51.050;3.716;2023-03-14T11:15:27;1.50;;;0.73;;
23328;SDS011;11836;51.050;3.716;2023-03-14T11:23:27;2.50;;;0.70;;
23328;SDS011;11836;51.050;3.716;2023-03-14T11:26:09;0.68;;;0.43;;
23328;SDS011;11836;51.050;3.716;2023-03-14T11:28:45;2.22;;;0.65;;
23328;SDS011;11836;51.050;3.716;2023-03-14T11:31:23;0.90;;;0.40;;
23328;SDS011;11836;51.050;3.716;2023-03-14T11:34:01;1.33;;;0.60;;
23328;SDS011;11836;51.050;3.716;2023-03-14T11:36:33;2.80;;;0.57;;
23328;SDS011;11836;51.050;3.716;2023-03-14T11:39:13;3.70;;;0.70;;
23328;SDS011;11836;51.050;3.716;2023-03-14T11:41:47;1.75;;;0.50;;
23328;SDS011;11836;51.050;3.716;2023-03-14T11:44:18;1.30;;;0.77;;
23328;SDS011;11836;51.050;3.716;2023-03-14T11:52:03;4.13;;;1.48;;
23328;SDS011;11836;51.050;3.716;2023-03-14T11:54:36;4.57;;;1.25;;
23328;SDS011;11836;51.050;3.716;2023-03-14T11:57:25;3.90;;;1.17;;
23328;SDS011;11836;51.050;3.716;2023-03-14T12:08:21;5.38;;;1.10;;
23328;SDS011;11836;51.050;3.716;2023-03-14T12:10:56;5.63;;;1.45;;
23328;SDS011;11836;51.050;3.716;2023-03-14T12:13:36;4.38;;;1.15;;
23328;SDS011;11836;51.050;3.716;2023-03-14T12:16:04;3.03;;;1.10;;
23328;SDS011;11836;51.050;3.716;2023-03-14T12:18:33;4.05;;;1.33;;
23328;SDS011;11836;51.050;3.716;2023-03-14T12:21:04;4.53;;;1.02;;
23328;SDS011;11836;51.050;3.716;2023-03-14T12:23:51;3.55;;;1.00;;
23328;SDS011;11836;51.050;3.716;2023-03-14T12:26:20;4.32;;;1.40;;
23328;SDS011;11836;51.050;3.716;2023-03-14T12:42:01;4.20;;;1.33;;
23328;SDS011;11836;51.050;3.716;2023-03-14T12:44:41;4.30;;;1.38;;
23328;SDS011;11836;51.050;3.716;2023-03-14T12:49:44;4.35;;;1.08;;
23328;SDS011;11836;51.050;3.716;2023-03-14T12:52:22;2.88;;;1.00;;
23328;SDS011;11836;51.050;3.716;2023-03-14T12:55:02;4.00;;;1.23;;
23328;SDS011;11836;51.050;3.716;2023-03-14T12:57:42;3.85;;;0.85;;
23328;SDS011;11836;51.050;3.716;2023-03-14T13:00:22;6.13;;;1.13;;
23328;SDS011;11836;51.050;3.716;2023-03-14T13:06:02;2.20;;;0.70;;
23328;SDS011;11836;51.050;3.716;2023-03-14T13:12:00;1.75;;;0.77;;
23328;SDS011;11836;51.050;3.716;2023-03-14T13:14:34;2.35;;;1.13;;
23328;SDS011;11836;51.050;3.716;2023-03-14T13:17:01;2.92;;;1.15;;
23328;SDS011;11836;51.050;3.716;2023-03-14T13:19:31;3.08;;;0.85;;
23328;SDS011;11836;51.050;3.716;2023-03-14T13:22:03;4.38;;;1.30;;
23328;SDS011;11836;51.050;3.716;2023-03-14T13:24:45;5.53;;;1.77;;
23328;SDS011;11836;51.050;3.716;2023-03-14T13:27:17;3.83;;;1.30;;
23328;SDS011;11836;51.050;3.716;2023-03-14T13:29:45;5.68;;;1.65;;
23328;SDS011;11836;51.050;3.716;2023-03-14T13:32:22;3.55;;;1.40;;
23328;SDS011;11836;51.050;3.716;2023-03-14T13:34:55;6.07;;;1.35;;
23328;SDS011;11836;51.050;3.716;2023-03-14T13:37:29;5.32;;;1.52;;
23328;SDS011;11836;51.050;3.716;2023-03-14T13:39:56;4.35;;;1.30;;
23328;SDS011;11836;51.050;3.716;2023-03-14T13:42:28;4.15;;;1.20;;
23328;SDS011;11836;51.050;3.716;2023-03-14T13:44:55;3.58;;;1.38;;
23328;SDS011;11836;51.050;3.716;2023-03-14T13:47:23;3.60;;;1.27;;
23328;SDS011;11836;51.050;3.716;2023-03-14T13:50:04;4.85;;;1.83;;
23328;SDS011;11836;51.050;3.716;2023-03-14T13:52:31;9.65;;;2.05;;
23328;SDS011;11836;51.050;3.716;2023-03-14T13:55:01;3.20;;;1.00;;
23328;SDS011;11836;51.050;3.716;2023-03-14T13:57:45;3.72;;;0.82;;
23328;SDS011;11836;51.050;3.716;2023-03-14T14:00:17;3.83;;;1.30;;
23328;SDS011;11836;51.050;3.716;2023-03-14T14:02:44;6.35;;;1.30;;
23328;SDS011;11836;51.050;3.716;2023-03-14T14:05:10;4.35;;;1.20;;
23328;SDS011;11836;51.050;3.716;2023-03-14T14:07:37;2.75;;;1.13;;
23328;SDS011;11836;51.050;3.716;2023-03-14T14:10:03;2.72;;;1.20;;
23328;SDS011;11836;51.050;3.716;2023-03-14T14:12:31;3.08;;;0.90;;
23328;SDS011;11836;51.050;3.716;2023-03-14T14:15:20;3.60;;;1.30;;
23328;SDS011;11836;51.050;3.716;2023-03-14T14:17:52;3.80;;;1.08;;
23328;SDS011;11836;51.050;3.716;2023-03-14T14:20:43;3.20;;;1.10;;
23328;SDS011;11836;51.050;3.716;2023-03-14T14:23:11;3.08;;;0.98;;
23328;SDS011;11836;51.050;3.716;2023-03-14T14:25:40;2.20;;;1.20;;
23328;SDS011;11836;51.050;3.716;2023-03-14T14:28:17;1.38;;;0.60;;
23328;SDS011;11836;51.050;3.716;2023-03-14T14:31:05;2.45;;;0.88;;
23328;SDS011;11836;51.050;3.716;2023-03-14T14:33:41;5.72;;;1.25;;
23328;SDS011;11836;51.050;3.716;2023-03-14T14:36:15;1.55;;;0.90;;
23328;SDS011;11836;51.050;3.716;2023-03-14T14:38:58;2.30;;;0.70;;
23328;SDS011;11836;51.050;3.716;2023-03-14T14:41:39;2.00;;;0.73;;
23328;SDS011;11836;51.050;3.716;2023-03-14T14:44:06;2.55;;;1.08;;
23328;SDS011;11836;51.050;3.716;2023-03-14T14:46:36;2.80;;;0.90;;
23328;SDS011;11836;51.050;3.716;2023-03-14T14:49:03;3.25;;;1.17;;
23328;SDS011;11836;51.050;3.716;2023-03-14T14:51:43;0.85;;;0.50;;
23328;SDS011;11836;51.050;3.716;2023-03-14T14:59:49;2.17;;;0.75;;
23328;SDS011;11836;51.050;3.716;2023-03-14T15:02:27;2.40;;;0.70;;
23328;SDS011;11836;51.050;3.716;2023-03-14T15:05:00;1.90;;;0.70;;
23328;SDS011;11836;51.050;3.716;2023-03-14T15:07:26;2.78;;;0.85;;
23328;SDS011;11836;51.050;3.716;2023-03-14T15:09:57;5.22;;;1.13;;
23328;SDS011;11836;51.050;3.716;2023-03-14T15:12:23;1.65;;;0.90;;
23328;SDS011;11836;51.050;3.716;2023-03-14T15:15:00;3.70;;;0.90;;
23328;SDS011;11836;51.050;3.716;2023-03-14T15:17:41;1.67;;;0.75;;
23328;SDS011;11836;51.050;3.716;2023-03-14T15:20:11;2.10;;;0.90;;
23328;SDS011;11836;51.050;3.716;2023-03-14T15:22:39;1.80;;;0.55;;
23328;SDS011;11836;51.050;3.716;2023-03-14T15:25:05;2.72;;;1.00;;
23328;SDS011;11836;51.050;3.716;2023-03-14T15:27:32;2.67;;;0.90;;
23328;SDS011;11836;51.050;3.716;2023-03-14T15:29:58;2.65;;;1.17;;
23328;SDS011;11836;51.050;3.716;2023-03-14T15:32:25;1.30;;;0.50;;
23328;SDS011;11836;51.050;3.716;2023-03-14T15:34:55;4.22;;;0.98;;
23328;SDS011;11836;51.050;3.716;2023-03-14T15:39:52;4.78;;;0.80;;
23328;SDS011;11836;51.050;3.716;2023-03-14T15:42:18;1.83;;;0.82;;
23328;SDS011;11836;51.050;3.716;2023-03-14T15:44:43;1.63;;;0.60;;
23328;SDS011;11836;51.050;3.716;2023-03-14T15:47:09;2.90;;;0.75;;
23328;SDS011;11836;51.050;3.716;2023-03-14T15:49:35;2.42;;;0.82;;
23328;SDS011;11836;51.050;3.716;2023-03-14T15:52:01;2.13;;;0.88;;
23328;SDS011;11836;51.050;3.716;2023-03-14T15:54:27;3.13;;;1.25;;
23328;SDS011;11836;51.050;3.716;2023-03-14T15:56:53;3.58;;;0.80;;
23328;SDS011;11836;51.050;3.716;2023-03-14T15:59:28;2.42;;;0.80;;
23328;SDS011;11836;51.050;3.716;2023-03-14T16:01:54;3.30;;;1.23;;
23328;SDS011;11836;51.050;3.716;2023-03-14T16:04:19;6.03;;;1.20;;
23328;SDS011;11836;51.050;3.716;2023-03-14T16:06:45;2.40;;;1.00;;
23328;SDS011;11836;51.050;3.716;2023-03-14T16:09:12;2.72;;;0.80;;
23328;SDS011;11836;51.050;3.716;2023-03-14T16:11:37;3.72;;;1.10;;
23328;SDS011;11836;51.050;3.716;2023-03-14T16:14:03;1.70;;;0.90;;
23328;SDS011;11836;51.050;3.716;2023-03-14T16:16:29;2.30;;;0.70;;
23328;SDS011;11836;51.050;3.716;2023-03-14T16:18:55;2.15;;;0.80;;
23328;SDS011;11836;51.050;3.716;2023-03-14T16:21:21;2.70;;;0.82;;
23328;SDS011;11836;51.050;3.716;2023-03-14T16:23:46;3.25;;;1.00;;
23328;SDS011;11836;51.050;3.716;2023-03-14T16:26:13;1.75;;;0.98;;
23328;SDS011;11836;51.050;3.716;2023-03-14T16:28:41;2.08;;;0.77;;
23328;SDS011;11836;51.050;3.716;2023-03-14T16:31:08;2.03;;;0.70;;
23328;SDS011;11836;51.050;3.716;2023-03-14T16:33:35;2.67;;;1.17;;
23328;SDS011;11836;51.050;3.716;2023-03-14T16:36:05;4.13;;;1.27;;
23328;SDS011;11836;51.050;3.716;2023-03-14T16:38:35;1.58;;;0.57;;
23328;SDS011;11836;51.050;3.716;2023-03-14T16:43:38;2.80;;;1.23;;
23328;SDS011;11836;51.050;3.716;2023-03-14T16:46:05;1.30;;;0.80;;
23328;SDS011;11836;51.050;3.716;2023-03-14T16:48:39;2.20;;;0.80;;
23328;SDS011;11836;51.050;3.716;2023-03-14T16:51:04;1.63;;;0.73;;
23328;SDS011;11836;51.050;3.716;2023-03-14T16:53:30;2.15;;;0.70;;
23328;SDS011;11836;51.050;3.716;2023-03-14T16:55:56;1.63;;;0.90;;
23328;SDS011;11836;51.050;3.716;2023-03-14T16:58:23;2.47;;;1.05;;
23328;SDS011;11836;51.050;3.716;2023-03-14T17:00:49;2.10;;;0.95;;
23328;SDS011;11836;51.050;3.716;2023-03-14T17:03:15;2.67;;;0.73;;
23328;SDS011;11836;51.050;3.716;2023-03-14T17:05:48;3.08;;;1.00;;
23328;SDS011;11836;51.050;3.716;2023-03-14T17:08:15;2.42;;;1.00;;
23328;SDS011;11836;51.050;3.716;2023-03-14T17:10:45;2.60;;;1.00;;
23328;SDS011;11836;51.050;3.716;2023-03-14T17:13:11;2.17;;;0.85;;
23328;SDS011;11836;51.050;3.716;2023-03-14T17:15:36;3.63;;;0.95;;
23328;SDS011;11836;51.050;3.716;2023-03-14T17:18:02;1.95;;;1.08;;
23328;SDS011;11836;51.050;3.716;2023-03-14T17:20:29;2.28;;;0.70;;
23328;SDS011;11836;51.050;3.716;2023-03-14T17:22:55;2.05;;;0.88;;
23328;SDS011;11836;51.050;3.716;2023-03-14T17:25:21;2.35;;;0.90;;
23328;SDS011;11836;51.050;3.716;2023-03-14T17:27:47;1.92;;;0.68;;
23328;SDS011;11836;51.050;3.716;2023-03-14T17:30:12;2.90;;;1.35;;
23328;SDS011;11836;51.050;3.716;2023-03-14T17:32:38;3.67;;;1.40;;
23328;SDS011;11836;51.050;3.716;2023-03-14T17:35:04;2.35;;;1.00;;
23328;SDS011;11836;51.050;3.716;2023-03-14T17:37:30;3.28;;;1.05;;
23328;SDS011;11836;51.050;3.716;2023-03-14T17:39:56;2.20;;;0.80;;
23328;SDS011;11836;51.050;3.716;2023-03-14T17:42:25;3.47;;;0.90;;
23328;SDS011;11836;51.050;3.716;2023-03-14T17:44:55;2.00;;;1.08;;
23328;SDS011;11836;51.050;3.716;2023-03-14T17:47:20;2.13;;;0.70;;
23328;SDS011;11836;51.050;3.716;2023-03-14T17:49:46;3.38;;;1.00;;
23328;SDS011;11836;51.050;3.716;2023-03-14T17:52:12;1.40;;;0.70;;
23328;SDS011;11836;51.050;3.716;2023-03-14T17:54:37;1.38;;;0.57;;
23328;SDS011;11836;51.050;3.716;2023-03-14T17:57:04;3.88;;;0.73;;
23328;SDS011;11836;51.050;3.716;2023-03-14T17:59:29;2.10;;;1.02;;
23328;SDS011;11836;51.050;3.716;2023-03-14T18:01:57;2.90;;;1.50;;
23328;SDS011;11836;51.050;3.716;2023-03-14T18:04:24;3.13;;;0.83;;
23328;SDS011;11836;51.050;3.716;2023-03-14T18:06:50;5.82;;;2.25;;
23328;SDS011;11836;51.050;3.716;2023-03-14T18:09:16;7.15;;;2.42;;
23328;SDS011;11836;51.050;3.716;2023-03-14T18:11:42;8.68;;;2.95;;
23328;SDS011;11836;51.050;3.716;2023-03-14T18:14:07;10.70;;;3.40;;
23328;SDS011;11836;51.050;3.716;2023-03-14T18:16:34;7.10;;;3.20;;
23328;SDS011;11836;51.050;3.716;2023-03-14T18:19:00;12.15;;;4.57;;
23328;SDS011;11836;51.050;3.716;2023-03-14T18:21:25;6.95;;;3.28;;
23328;SDS011;11836;51.050;3.716;2023-03-14T18:23:54;10.10;;;3.38;;
23328;SDS011;11836;51.050;3.716;2023-03-14T18:26:20;7.90;;;3.20;;
23328;SDS011;11836;51.050;3.716;2023-03-14T18:28:46;5.90;;;2.60;;
23328;SDS011;11836;51.050;3.716;2023-03-14T18:31:12;11.80;;;2.88;;
23328;SDS011;11836;51.050;3.716;2023-03-14T18:33:39;10.98;;;3.10;;
23328;SDS011;11836;51.050;3.716;2023-03-14T18:36:10;7.30;;;2.45;;
23328;SDS011;11836;51.050;3.716;2023-03-14T18:38:37;6.78;;;2.20;;
23328;SDS011;11836;51.050;3.716;2023-03-14T18:41:07;6.35;;;2.28;;
23328;SDS011;11836;51.050;3.716;2023-03-14T18:43:35;5.43;;;2.30;;
23328;SDS011;11836;51.050;3.716;2023-03-14T18:46:01;4.22;;;1.65;;
23328;SDS011;11836;51.050;3.716;2023-03-14T18:48:27;4.15;;;1.95;;
23328;SDS011;11836;51.050;3.716;2023-03-14T18:50:54;3.78;;;1.88;;
23328;SDS011;11836;51.050;3.716;2023-03-14T18:53:21;5.40;;;2.03;;
23328;SDS011;11836;51.050;3.716;2023-03-14T18:55:53;4.30;;;1.83;;
23328;SDS011;11836;51.050;3.716;2023-03-14T18:58:19;3.42;;;1.60;;
23328;SDS011;11836;51.050;3.716;2023-03-14T19:00:49;6.03;;;2.20;;
23328;SDS011;11836;51.050;3.716;2023-03-14T19:03:15;5.05;;;1.92;;
23328;SDS011;11836;51.050;3.716;2023-03-14T19:05:44;4.13;;;1.42;;
23328;SDS011;11836;51.050;3.716;2023-03-14T19:08:09;4.32;;;1.88;;
23328;SDS011;11836;51.050;3.716;2023-03-14T19:10:38;5.38;;;2.10;;
23328;SDS011;11836;51.050;3.716;2023-03-14T19:13:04;5.05;;;1.55;;
23328;SDS011;11836;51.050;3.716;2023-03-14T19:15:29;2.85;;;1.63;;
23328;SDS011;11836;51.050;3.716;2023-03-14T19:17:55;4.18;;;1.65;;
23328;SDS011;11836;51.050;3.716;2023-03-14T19:20:21;3.72;;;1.50;;
23328;SDS011;11836;51.050;3.716;2023-03-14T19:22:46;3.67;;;1.67;;
23328;SDS011;11836;51.050;3.716;2023-03-14T19:25:12;4.43;;;1.83;;
23328;SDS011;11836;51.050;3.716;2023-03-14T19:27:38;3.10;;;1.65;;
23328;SDS011;11836;51.050;3.716;2023-03-14T19:30:05;3.10;;;1.77;;
23328;SDS011;11836;51.050;3.716;2023-03-14T19:32:31;3.10;;;1.27;;
23328;SDS011;11836;51.050;3.716;2023-03-14T19:34:56;6.78;;;1.67;;
23328;SDS011;11836;51.050;3.716;2023-03-14T19:37:22;5.65;;;1.67;;
23328;SDS011;11836;51.050;3.716;2023-03-14T19:39:50;4.25;;;1.63;;
23328;SDS011;11836;51.050;3.716;2023-03-14T19:42:16;4.55;;;1.60;;
23328;SDS011;11836;51.050;3.716;2023-03-14T19:44:42;4.32;;;1.58;;
23328;SDS011;11836;51.050;3.716;2023-03-14T19:47:08;2.72;;;1.23;;
23328;SDS011;11836;51.050;3.716;2023-03-14T19:49:33;2.95;;;1.60;;
23328;SDS011;11836;51.050;3.716;2023-03-14T19:51:59;4.00;;;1.60;;
23328;SDS011;11836;51.050;3.716;2023-03-14T19:54:25;3.58;;;1.70;;
23328;SDS011;11836;51.050;3.716;2023-03-14T19:56:51;3.55;;;1.30;;
23328;SDS011;11836;51.050;3.716;2023-03-14T19:59:16;4.13;;;1.50;;
23328;SDS011;11836;51.050;3.716;2023-03-14T20:01:42;2.50;;;1.20;;
23328;SDS011;11836;51.050;3.716;2023-03-14T20:04:11;1.60;;;1.13;;
23328;SDS011;11836;51.050;3.716;2023-03-14T20:06:39;3.30;;;1.40;;
23328;SDS011;11836;51.050;3.716;2023-03-14T20:09:08;2.70;;;1.38;;
23328;SDS011;11836;51.050;3.716;2023-03-14T20:11:35;3.70;;;1.45;;
23328;SDS011;11836;51.050;3.716;2023-03-14T20:14:05;3.00;;;1.17;;
23328;SDS011;11836;51.050;3.716;2023-03-14T20:16:31;2.78;;;1.25;;
23328;SDS011;11836;51.050;3.716;2023-03-14T20:19:00;3.78;;;1.27;;
23328;SDS011;11836;51.050;3.716;2023-03-14T20:21:28;5.93;;;1.10;;
23328;SDS011;11836;51.050;3.716;2023-03-14T20:23:53;2.72;;;1.27;;
23328;SDS011;11836;51.050;3.716;2023-03-14T20:26:19;4.65;;;1.60;;
23328;SDS011;11836;51.050;3.716;2023-03-14T20:28:44;2.40;;;1.30;;
23328;SDS011;11836;51.050;3.716;2023-03-14T20:31:11;3.17;;;1.42;;
23328;SDS011;11836;51.050;3.716;2023-03-14T20:33:39;4.30;;;1.63;;
23328;SDS011;11836;51.050;3.716;2023-03-14T20:36:07;3.95;;;1.40;;
23328;SDS011;11836;51.050;3.716;2023-03-14T20:38:33;3.47;;;1.50;;
23328;SDS011;11836;51.050;3.716;2023-03-14T20:41:00;5.30;;;1.75;;
23328;SDS011;11836;51.050;3.716;2023-03-14T20:43:26;3.20;;;1.63;;
23328;SDS011;11836;51.050;3.716;2023-03-14T20:45:54;2.88;;;1.27;;
23328;SDS011;11836;51.050;3.716;2023-03-14T20:48:21;2.65;;;1.25;;
23328;SDS011;11836;51.050;3.716;2023-03-14T20:50:50;2.20;;;1.27;;
23328;SDS011;11836;51.050;3.716;2023-03-14T20:53:50;3.30;;;1.40;;
23328;SDS011;11836;51.050;3.716;2023-03-14T20:56:16;2.90;;;1.40;;
23328;SDS011;11836;51.050;3.716;2023-03-14T20:58:45;3.28;;;1.40;;
23328;SDS011;11836;51.050;3.716;2023-03-14T21:01:10;3.25;;;1.33;;
23328;SDS011;11836;51.050;3.716;2023-03-14T21:03:36;2.75;;;1.27;;
23328;SDS011;11836;51.050;3.716;2023-03-14T21:06:03;1.95;;;1.15;;
23328;SDS011;11836;51.050;3.716;2023-03-14T21:08:34;3.17;;;1.48;;
23328;SDS011;11836;51.050;3.716;2023-03-14T21:11:00;2.00;;;1.38;;
23328;SDS011;11836;51.050;3.716;2023-03-14T21:13:25;6.82;;;1.60;;
23328;SDS011;11836;51.050;3.716;2023-03-14T21:15:51;2.15;;;1.33;;
23328;SDS011;11836;51.050;3.716;2023-03-14T21:18:17;3.00;;;1.52;;
23328;SDS011;11836;51.050;3.716;2023-03-14T21:20:44;2.65;;;1.30;;
23328;SDS011;11836;51.050;3.716;2023-03-14T21:23:10;2.70;;;1.60;;
23328;SDS011;11836;51.050;3.716;2023-03-14T21:25:36;3.63;;;1.70;;
23328;SDS011;11836;51.050;3.716;2023-03-14T21:28:02;3.33;;;1.50;;
23328;SDS011;11836;51.050;3.716;2023-03-14T21:30:29;2.13;;;1.30;;
23328;SDS011;11836;51.050;3.716;2023-03-14T21:32:58;4.75;;;2.00;;
23328;SDS011;11836;51.050;3.716;2023-03-14T21:35:24;4.65;;;1.60;;
23328;SDS011;11836;51.050;3.716;2023-03-14T21:37:50;3.30;;;1.77;;
23328;SDS011;11836;51.050;3.716;2023-03-14T21:40:16;3.28;;;1.80;;
23328;SDS011;11836;51.050;3.716;2023-03-14T21:42:41;3.83;;;1.73;;
23328;SDS011;11836;51.050;3.716;2023-03-14T21:45:07;2.30;;;1.30;;
23328;SDS011;11836;51.050;3.716;2023-03-14T21:47:33;4.22;;;1.50;;
23328;SDS011;11836;51.050;3.716;2023-03-14T21:49:59;4.20;;;2.00;;
23328;SDS011;11836;51.050;3.716;2023-03-14T21:52:25;2.20;;;1.40;;
23328;SDS011;11836;51.050;3.716;2023-03-14T21:54:51;2.78;;;1.73;;
23328;SDS011;11836;51.050;3.716;2023-03-14T21:57:17;3.47;;;1.52;;
23328;SDS011;11836;51.050;3.716;2023-03-14T21:59:43;3.20;;;1.60;;
23328;SDS011;11836;51.050;3.716;2023-03-14T22:02:13;2.40;;;1.40;;
23328;SDS011;11836;51.050;3.716;2023-03-14T22:04:40;4.00;;;1.70;;
23328;SDS011;11836;51.050;3.716;2023-03-14T22:07:07;4.20;;;1.67;;
23328;SDS011;11836;51.050;3.716;2023-03-14T22:09:37;4.45;;;1.30;;
23328;SDS011;11836;51.050;3.716;2023-03-14T22:12:03;3.15;;;1.88;;
23328;SDS011;11836;51.050;3.716;2023-03-14T22:14:29;3.15;;;1.70;;
23328;SDS011;11836;51.050;3.716;2023-03-14T22:16:55;3.97;;;1.80;;
23328;SDS011;11836;51.050;3.716;2023-03-14T22:19:23;3.65;;;1.70;;
23328;SDS011;11836;51.050;3.716;2023-03-14T22:21:52;5.30;;;2.03;;
23328;SDS011;11836;51.050;3.716;2023-03-14T22:24:18;4.55;;;2.30;;
23328;SDS011;11836;51.050;3.716;2023-03-14T22:26:43;2.85;;;1.50;;
23328;SDS011;11836;51.050;3.716;2023-03-14T22:29:09;4.00;;;1.92;;
23328;SDS011;11836;51.050;3.716;2023-03-14T22:31:35;2.47;;;1.60;;
23328;SDS011;11836;51.050;3.716;2023-03-14T22:34:01;4.03;;;1.80;;
23328;SDS011;11836;51.050;3.716;2023-03-14T22:36:26;3.63;;;1.85;;
23328;SDS011;11836;51.050;3.716;2023-03-14T22:38:52;3.05;;;1.50;;
23328;SDS011;11836;51.050;3.716;2023-03-14T22:41:18;3.63;;;1.98;;
23328;SDS011;11836;51.050;3.716;2023-03-14T22:43:43;3.80;;;1.80;;
23328;SDS011;11836;51.050;3.716;2023-03-14T22:46:10;5.00;;;1.90;;
23328;SDS011;11836;51.050;3.716;2023-03-14T22:48:36;2.53;;;1.60;;
23328;SDS011;11836;51.050;3.716;2023-03-14T22:51:06;4.72;;;1.83;;
23328;SDS011;11836;51.050;3.716;2023-03-14T22:53:33;4.28;;;1.90;;
23328;SDS011;11836;51.050;3.716;2023-03-14T22:56:00;2.30;;;1.52;;
23328;SDS011;11836;51.050;3.716;2023-03-14T22:58:27;5.25;;;1.80;;